Time;durP1;ratioP1;P1;durP2;ratioP2;P2;SDS_P1;SDS_P2;PMS_P1;PMS_P2;Temp;Humidity;BMP_temperature;BMP_pressure;BME280_temperature;BME280_humidity;BME280_pressure;Samples;Min_cycle;Max_cycle;Signal;HPM_P1;HPM_P2
2022/04/06 00:00:12;;;;;;;9.50;1.58;;;;;;;7.35;100.00;99465.19;5062420;28;20036;-78
2022/04/06 00:02:39;;;;;;;12.30;2.40;;;;;;;7.32;100.00;99451.38;5064519;28;20887;-77
2022/04/06 00:05:09;;;;;;;7.65;1.17;;;;;;;7.39;100.00;99466.50;5068207;28;20029;-76
2022/04/06 00:07:36;;;;;;;8.82;1.80;;;;;;;7.35;100.00;99457.19;5067276;28;20123;-76
2022/04/06 00:10:02;;;;;;;4.70;1.23;;;;;;;7.34;100.00;99454.72;5062450;28;20345;-76
2022/04/06 00:12:28;;;;;;;8.38;1.33;;;;;;;7.36;100.00;99453.50;5060361;28;20017;-76
2022/04/06 00:14:53;;;;;;;5.43;1.20;;;;;;;7.41;100.00;99456.47;5035851;28;20045;-76
2022/04/06 00:17:19;;;;;;;8.55;1.20;;;;;;;7.44;100.00;99457.94;5052367;28;20470;-76
2022/04/06 00:19:45;;;;;;;6.85;1.23;;;;;;;7.46;100.00;99446.03;5051884;28;20043;-76
2022/04/06 00:22:10;;;;;;;3.88;1.30;;;;;;;7.44;100.00;99440.03;5032190;28;20443;-76
2022/04/06 00:24:36;;;;;;;10.82;1.70;;;;;;;7.44;100.00;99440.03;5052629;28;20033;-76
2022/04/06 00:27:02;;;;;;;6.50;2.10;;;;;;;7.38;100.00;99446.13;5048449;28;20390;-76
2022/04/06 00:29:27;;;;;;;6.40;1.77;;;;;;;7.37;100.00;99436.44;5062573;28;20419;-76
2022/04/06 00:31:53;;;;;;;2.88;1.45;;;;;;;7.21;100.00;99418.75;5052858;28;20119;-77
2022/04/06 00:34:18;;;;;;;9.88;1.60;;;;;;;7.32;100.00;99446.03;5066552;28;20493;-77
2022/04/06 00:36:44;;;;;;;10.10;1.52;;;;;;;7.32;100.00;99444.19;5030124;28;20136;-76
2022/04/06 00:39:11;;;;;;;17.42;2.50;;;;;;;7.31;100.00;99445.22;5032527;28;20167;-77
2022/04/06 00:41:39;;;;;;;8.70;1.95;;;;;;;7.29;100.00;99449.91;5058151;28;21710;-76
2022/04/06 00:44:18;;;;;;;9.10;1.50;;;;;;;7.26;100.00;99443.09;5068772;28;20033;-76
2022/04/06 00:46:45;;;;;;;3.70;1.20;;;;;;;7.20;100.00;99425.13;5065387;28;20531;-77
2022/04/06 00:49:13;;;;;;;5.95;1.40;;;;;;;7.17;100.00;99427.34;5064532;28;20028;-76
2022/04/06 00:51:44;;;;;;;9.35;2.22;;;;;;;7.12;100.00;99427.06;5046407;28;20079;-76
2022/04/06 00:54:15;;;;;;;9.30;1.55;;;;;;;7.11;100.00;99425.41;5056199;28;20040;-75
2022/04/06 00:56:42;;;;;;;8.57;1.55;;;;;;;6.94;100.00;99395.41;5063846;28;20060;-76
2022/04/06 00:59:09;;;;;;;10.80;1.35;;;;;;;6.89;100.00;99400.47;5069515;28;20028;-76
2022/04/06 01:01:35;;;;;;;8.65;1.95;;;;;;;6.84;100.00;99414.38;5065672;28;20032;-77
2022/04/06 01:04:00;;;;;;;6.75;1.30;;;;;;;6.78;100.00;99423.97;5067849;28;20037;-76
2022/04/06 01:06:26;;;;;;;6.45;2.03;;;;;;;6.72;100.00;99410.50;5065570;28;20116;-76
2022/04/06 01:08:55;;;;;;;5.15;1.13;;;;;;;6.60;100.00;99386.91;5035673;28;20029;-77
2022/04/06 01:11:20;;;;;;;9.05;1.95;;;;;;;6.71;100.00;99395.50;5064088;28;20048;-76
2022/04/06 01:13:47;;;;;;;5.03;1.02;;;;;;;6.73;100.00;99404.16;5063686;28;20033;-76
2022/04/06 01:16:13;;;;;;;7.05;1.65;;;;;;;6.69;100.00;99398.34;5063449;28;20488;-76
2022/04/06 01:18:40;;;;;;;12.50;2.10;;;;;;;6.67;100.00;99391.50;5067788;28;20032;-77
2022/04/06 01:21:06;;;;;;;5.65;1.42;;;;;;;6.68;100.00;99374.50;5068163;28;20119;-76
2022/04/06 01:23:32;;;;;;;11.38;1.35;;;;;;;6.81;100.00;99386.19;5032082;28;20032;-76
2022/04/06 01:25:57;;;;;;;9.65;1.52;;;;;;;6.81;100.00;99378.16;5066965;28;20389;-77
2022/04/06 01:28:24;;;;;;;14.70;2.50;;;;;;;6.81;100.00;99370.16;5045504;28;20063;-77
2022/04/06 01:30:50;;;;;;;8.85;2.30;;;;;;;6.67;100.00;99359.47;5062026;28;20048;-77
2022/04/06 01:33:16;;;;;;;5.55;1.75;;;;;;;6.50;100.00;99343.63;5061429;28;20032;-76
2022/04/06 01:35:42;;;;;;;7.50;1.48;;;;;;;6.55;100.00;99343.91;5032669;28;20031;-76
2022/04/06 01:38:09;;;;;;;15.70;2.17;;;;;;;6.64;100.00;99343.81;5028653;28;20048;-76
2022/04/06 01:40:35;;;;;;;8.35;1.48;;;;;;;6.54;100.00;99320.91;5065058;28;20033;-77
2022/04/06 01:43:01;;;;;;;16.27;3.65;;;;;;;6.65;100.00;99332.13;5066918;28;20047;-76
2022/04/06 01:45:26;;;;;;;8.40;2.20;;;;;;;6.61;100.00;99326.31;5066349;28;20028;-77
2022/04/06 01:47:52;;;;;;;18.95;2.28;;;;;;;6.70;100.00;99329.75;5046361;28;20363;-76
2022/04/06 01:53:03;;;;;;;7.85;2.22;;;;;;;6.90;100.00;99322.78;5052813;28;20520;-76
2022/04/06 01:55:32;;;;;;;7.35;1.70;;;;;;;6.89;100.00;99310.44;5064693;28;20038;-76
2022/04/06 01:57:59;;;;;;;16.55;2.17;;;;;;;6.75;100.00;99292.63;5067258;28;20032;-77
2022/04/06 02:00:26;;;;;;;8.18;1.33;;;;;;;6.81;100.00;99306.03;5064076;28;20035;-76
2022/04/06 02:02:53;;;;;;;11.77;1.55;;;;;;;6.77;100.00;99304.78;5033145;28;20123;-77
2022/04/06 02:05:20;;;;;;;13.15;2.28;;;;;;;6.74;100.00;99272.25;5058904;28;20047;-76
2022/04/06 02:07:50;;;;;;;14.20;2.50;;;;;;;6.93;100.00;99284.16;5065392;28;20393;-75
2022/04/06 02:10:17;;;;;;;11.35;2.25;;;;;;;6.88;100.00;99268.72;5062593;28;20150;-75
2022/04/06 02:12:43;;;;;;;14.10;2.38;;;;;;;6.94;100.00;99269.81;5046397;28;20020;-76
2022/04/06 02:15:10;;;;;;;14.27;2.10;;;;;;;6.93;100.00;99265.47;5061939;28;20093;-77
2022/04/06 02:17:37;;;;;;;11.18;2.40;;;;;;;6.99;100.00;99256.72;5065391;28;20024;-76
2022/04/06 02:20:03;;;;;;;7.68;2.10;;;;;;;6.94;100.00;99225.22;5061052;28;20029;-76
2022/04/06 02:22:29;;;;;;;10.05;2.20;;;;;;;7.15;100.00;99253.78;5031131;28;20033;-75
2022/04/06 02:24:55;;;;;;;8.95;2.22;;;;;;;7.22;100.00;99240.47;5045914;28;20101;-76
2022/04/06 02:27:20;;;;;;;9.55;1.95;;;;;;;7.26;100.00;99228.38;5063886;28;20047;-76
2022/04/06 02:29:46;;;;;;;14.32;2.10;;;;;;;7.35;100.00;99231.75;5059677;28;20481;-77
2022/04/06 02:32:12;;;;;;;26.55;3.47;;;;;;;7.38;100.00;99237.56;5064747;28;20082;-77
2022/04/06 02:34:39;;;;;;;14.13;2.10;;;;;;;7.42;100.00;99228.13;5049639;28;20025;-76
2022/04/06 02:37:08;;;;;;;10.55;2.20;;;;;;;7.39;100.00;99228.50;5062534;28;20039;-78
2022/04/06 02:39:34;;;;;;;12.40;2.58;;;;;;;7.41;100.00;99214.94;5062646;28;20051;-77
2022/04/06 02:42:00;;;;;;;21.08;2.58;;;;;;;7.36;100.00;99204.00;5060340;28;20382;-78
2022/04/06 02:44:28;;;;;;;14.32;2.67;;;;;;;7.24;100.00;99185.78;5055678;28;20029;-78
2022/04/06 02:46:54;;;;;;;6.53;1.50;;;;;;;7.34;100.00;99201.50;5060277;28;20505;-78
2022/04/06 02:49:20;;;;;;;4.68;1.27;;;;;;;7.25;100.00;99189.28;5062963;28;20071;-78
2022/04/06 02:51:46;;;;;;;10.75;1.80;;;;;;;7.15;100.00;99176.28;5048548;28;20056;-77
2022/04/06 02:54:11;;;;;;;9.85;1.35;;;;;;;7.14;100.00;99171.94;5064795;28;20067;-76
2022/04/06 02:56:38;;;;;;;8.32;1.50;;;;;;;7.13;100.00;99174.81;5034344;28;20466;-77
2022/04/06 02:59:03;;;;;;;7.57;1.40;;;;;;;7.16;100.00;99175.25;5063708;28;20477;-77
2022/04/06 03:01:37;;;;;;;4.82;1.55;;;;;;;7.19;100.00;99163.34;5060978;28;20039;-77
2022/04/06 03:04:02;;;;;;;6.53;1.20;;;;;;;7.11;100.00;99144.75;5032199;28;20028;-77
2022/04/06 03:06:28;;;;;;;2.85;1.05;;;;;;;7.30;100.00;99167.34;5059453;28;20036;-77
2022/04/06 03:08:55;;;;;;;3.88;1.00;;;;;;;7.29;100.00;99163.84;5064496;28;20028;-76
2022/04/06 03:11:22;;;;;;;6.68;1.40;;;;;;;7.27;100.00;99147.97;5047137;28;20048;-78
2022/04/06 03:13:49;;;;;;;4.22;1.40;;;;;;;7.06;100.00;99110.59;5062822;28;20039;-77
2022/04/06 03:16:15;;;;;;;2.70;0.85;;;;;;;7.14;100.00;99134.50;5062505;28;20116;-78
2022/04/06 03:18:41;;;;;;;4.38;1.15;;;;;;;6.76;100.00;99086.72;5065484;28;20032;-77
2022/04/06 03:21:06;;;;;;;10.45;1.33;;;;;;;6.89;100.00;99118.06;5032008;28;20043;-77
2022/04/06 03:23:32;;;;;;;7.25;2.85;;;;;;;6.88;100.00;99123.59;5057387;28;20118;-77
2022/04/06 03:25:58;;;;;;;5.18;0.77;;;;;;;6.82;100.00;99101.97;5035433;28;20032;-76
2022/04/06 03:28:23;;;;;;;8.25;1.58;;;;;;;6.79;100.00;99104.22;5059997;28;20062;-77
2022/04/06 03:30:49;;;;;;;6.32;1.35;;;;;;;6.76;100.00;99097.41;5042164;28;20028;-76
2022/04/06 03:33:15;;;;;;;15.98;2.50;;;;;;;6.73;100.00;99097.78;5059972;28;20036;-77
2022/04/06 03:35:41;;;;;;;5.82;0.60;;;;;;;6.65;100.00;99081.09;5035093;28;20052;-76
2022/04/06 03:38:06;;;;;;;1.25;0.50;;;;;;;6.63;100.00;99110.63;5059480;28;20036;-76
2022/04/06 03:40:32;;;;;;;0.60;0.60;;;;;;;6.56;100.00;99117.75;5027527;28;20072;-75
2022/04/06 03:42:58;;;;;;;2.75;0.47;;;;;;;6.56;100.00;99105.25;5062253;28;20033;-76
2022/04/06 03:45:27;;;;;;;0.40;0.40;;;;;;;6.37;100.00;99093.31;5078746;28;20062;-76
2022/04/06 03:47:52;;;;;;;0.30;0.30;;;;;;;6.23;100.00;99106.72;5030315;28;20527;-77
2022/04/06 03:50:18;;;;;;;0.40;0.40;;;;;;;6.04;100.00;99084.97;5032128;28;20033;-77
2022/04/06 03:52:44;;;;;;;0.73;0.63;;;;;;;5.98;100.00;99085.72;5046618;28;20109;-77
2022/04/06 03:55:10;;;;;;;0.38;0.38;;;;;;;5.76;100.00;99062.63;5059412;28;20394;-76
2022/04/06 03:57:38;;;;;;;0.40;0.40;;;;;;;5.78;100.00;99069.44;5061416;28;20099;-76
2022/04/06 04:00:07;;;;;;;0.40;0.40;;;;;;;5.76;100.00;99081.28;5026931;28;20812;-77
2022/04/06 04:02:37;;;;;;;0.40;0.40;;;;;;;5.69;100.00;99087.38;5051533;28;20048;-76
2022/04/06 04:05:03;;;;;;;0.40;0.40;;;;;;;5.58;100.00;99085.16;5031011;28;20029;-76
2022/04/06 04:07:29;;;;;;;0.40;0.40;;;;;;;5.57;100.00;99085.38;5061667;28;20478;-76
2022/04/06 04:09:55;;;;;;;0.40;0.40;;;;;;;5.50;100.00;99082.59;5046381;28;20052;-77
2022/04/06 04:12:21;;;;;;;0.40;0.40;;;;;;;5.49;100.00;99092.44;5068202;28;20067;-77
2022/04/06 04:14:46;;;;;;;0.40;0.40;;;;;;;5.41;100.00;99078.38;5062195;28;20068;-76
2022/04/06 04:17:12;;;;;;;0.40;0.40;;;;;;;5.25;100.00;99056.22;5062446;28;20425;-76
2022/04/06 04:19:38;;;;;;;0.30;0.30;;;;;;;5.29;100.00;99052.19;5033538;28;20067;-76
2022/04/06 04:22:04;;;;;;;0.30;0.30;;;;;;;5.27;100.00;99045.38;5064132;28;20481;-76
2022/04/06 04:24:29;;;;;;;0.40;0.40;;;;;;;5.23;100.00;99044.91;5066047;28;20056;-77
2022/04/06 04:26:55;;;;;;;0.40;0.40;;;;;;;5.22;100.00;99029.94;5068343;28;20517;-77
2022/04/06 04:29:23;;;;;;;0.40;0.40;;;;;;;5.25;100.00;99034.91;5062152;28;20029;-77
2022/04/06 04:31:49;;;;;;;0.40;0.40;;;;;;;5.27;100.00;99013.41;5072021;28;20044;-76
2022/04/06 04:34:15;;;;;;;0.30;0.30;;;;;;;5.31;100.00;99021.84;5047895;28;20044;-76
2022/04/06 04:36:41;;;;;;;0.40;0.40;;;;;;;5.38;100.00;99014.78;5051672;28;20386;-75
2022/04/06 04:39:07;;;;;;;0.40;0.40;;;;;;;5.40;100.00;99013.59;5037922;28;20059;-76
2022/04/06 04:41:33;;;;;;;0.40;0.40;;;;;;;5.45;100.00;99005.00;5065752;28;20416;-77
2022/04/06 04:43:59;;;;;;;0.40;0.40;;;;;;;5.44;100.00;98990.88;5062431;28;20039;-77
2022/04/06 04:46:25;;;;;;;0.40;0.40;;;;;;;5.52;100.00;99000.59;5044654;28;20036;-77
2022/04/06 04:48:50;;;;;;;0.60;0.60;;;;;;;5.55;100.00;98989.56;5058629;28;20442;-77
2022/04/06 04:51:18;;;;;;;0.30;0.30;;;;;;;5.59;100.00;98979.38;5041875;28;20553;-77
2022/04/06 04:53:46;;;;;;;0.30;0.30;;;;;;;5.59;100.00;98974.03;5063301;28;20535;-78
2022/04/06 04:56:12;;;;;;;0.30;0.30;;;;;;;5.63;100.00;98977.97;5033593;28;20068;-76
2022/04/06 04:58:37;;;;;;;0.35;0.35;;;;;;;5.64;100.00;98985.78;5063189;28;20450;-76
2022/04/06 05:01:03;;;;;;;0.52;0.52;;;;;;;5.65;100.00;98981.28;5043472;28;20032;-77
2022/04/06 05:03:29;;;;;;;0.40;0.40;;;;;;;5.63;100.00;98964.63;5072457;28;20579;-77
2022/04/06 05:05:56;;;;;;;0.40;0.40;;;;;;;5.62;100.00;98974.47;5026961;28;20397;-77
2022/04/06 05:08:22;;;;;;;0.40;0.40;;;;;;;5.63;100.00;98975.28;5059558;28;20067;-76
2022/04/06 05:10:48;;;;;;;0.40;0.40;;;;;;;5.66;100.00;98974.91;5027253;28;20470;-77
2022/04/06 05:13:14;;;;;;;0.40;0.40;;;;;;;5.63;100.00;98965.44;5032119;28;20082;-77
2022/04/06 05:15:41;;;;;;;0.38;0.38;;;;;;;5.62;100.00;98969.16;5045497;28;20465;-77
2022/04/06 05:18:06;;;;;;;0.40;0.40;;;;;;;5.60;100.00;98967.69;5048170;28;20436;-77
2022/04/06 05:20:32;;;;;;;0.40;0.40;;;;;;;5.58;100.00;98953.69;5049663;28;20032;-77
2022/04/06 05:22:58;;;;;;;0.40;0.40;;;;;;;5.50;100.00;98936.81;5029454;28;20040;-78
2022/04/06 05:25:23;;;;;;;0.40;0.40;;;;;;;5.47;100.00;98942.50;5049194;28;20123;-77
2022/04/06 05:27:52;;;;;;;0.40;0.40;;;;;;;5.46;100.00;98934.72;5059979;28;20123;-76
2022/04/06 05:30:19;;;;;;;0.40;0.40;;;;;;;5.50;100.00;98938.63;5053524;28;20033;-76
2022/04/06 05:32:46;;;;;;;0.40;0.40;;;;;;;5.39;100.00;98923.13;5053321;28;20122;-79
2022/04/06 05:35:12;;;;;;;0.40;0.40;;;;;;;5.40;100.00;98916.78;5043538;28;20047;-76
2022/04/06 05:37:40;;;;;;;0.40;0.40;;;;;;;5.47;100.00;98923.84;5054070;28;20039;-78
2022/04/06 05:40:07;;;;;;;0.40;0.40;;;;;;;5.41;100.00;98911.28;5055576;28;20485;-76
2022/04/06 05:42:33;;;;;;;0.40;0.40;;;;;;;5.50;100.00;98925.31;5048572;28;20049;-77
2022/04/06 05:44:59;;;;;;;0.40;0.40;;;;;;;5.50;100.00;98911.97;5070500;28;20043;-77
2022/04/06 05:47:25;;;;;;;0.40;0.40;;;;;;;5.49;100.00;98910.34;5061366;28;20466;-77
2022/04/06 05:49:50;;;;;;;0.35;0.35;;;;;;;5.48;100.00;98909.53;5076878;28;20028;-77
2022/04/06 05:52:16;;;;;;;0.40;0.40;;;;;;;5.51;100.00;98909.13;5044704;28;20494;-79
2022/04/06 05:54:42;;;;;;;0.40;0.40;;;;;;;5.54;100.00;98910.59;5062530;28;20044;-77
2022/04/06 05:57:07;;;;;;;0.40;0.40;;;;;;;5.61;100.00;98908.00;5030483;28;20032;-77
2022/04/06 05:59:40;;;;;;;0.40;0.40;;;;;;;5.66;100.00;98906.44;5027733;28;20036;-80
2022/04/06 06:02:07;;;;;;;0.50;0.50;;;;;;;5.77;100.00;98898.94;5049868;28;20159;-79
2022/04/06 06:04:33;;;;;;;0.30;0.30;;;;;;;5.80;100.00;98898.56;5068930;28;20044;-78
2022/04/06 06:06:59;;;;;;;0.40;0.40;;;;;;;5.89;100.00;98897.41;5051899;28;20386;-78
2022/04/06 06:09:25;;;;;;;0.40;0.40;;;;;;;5.89;100.00;98884.06;5066810;28;20063;-79
2022/04/06 06:11:50;;;;;;;0.40;0.40;;;;;;;5.91;100.00;98893.53;5050176;28;20066;-80
2022/04/06 06:14:16;;;;;;;0.40;0.40;;;;;;;5.97;100.00;98899.97;5048117;28;20036;-78
2022/04/06 06:16:44;;;;;;;0.40;0.40;;;;;;;5.94;100.00;98895.84;5035743;28;20041;-80
2022/04/06 06:19:11;;;;;;;0.40;0.40;;;;;;;5.94;100.00;98895.84;5054436;28;20385;-79
2022/04/06 06:21:36;;;;;;;0.40;0.40;;;;;;;5.97;100.00;98902.63;5067018;28;20501;-79
2022/04/06 06:24:06;;;;;;;0.40;0.40;;;;;;;6.00;100.00;98893.44;5053491;28;20103;-79
2022/04/06 06:26:39;;;;;;;1.45;0.57;;;;;;;6.00;100.00;98886.25;5036461;28;20465;-80
2022/04/06 06:29:05;;;;;;;0.40;0.40;;;;;;;6.02;100.00;98900.22;5036681;28;20032;-80
2022/04/06 06:31:31;;;;;;;0.40;0.40;;;;;;;5.97;100.00;98881.31;5066381;28;20085;-79
2022/04/06 06:34:00;;;;;;;0.30;0.30;;;;;;;6.08;100.00;98880.78;5042770;28;20029;-80
2022/04/06 06:36:26;;;;;;;0.40;0.40;;;;;;;6.15;100.00;98887.00;5051498;28;20064;-80
2022/04/06 06:38:53;;;;;;;0.47;0.40;;;;;;;6.20;100.00;98869.59;5066316;28;20477;-79
2022/04/06 06:41:19;;;;;;;1.48;0.50;;;;;;;6.31;100.00;98871.72;5052021;28;20115;-79
2022/04/06 06:43:48;;;;;;;0.40;0.40;;;;;;;6.41;100.00;98869.53;5052617;28;20112;-80
2022/04/06 06:46:18;;;;;;;0.30;0.30;;;;;;;6.47;100.00;98862.59;5034800;28;20029;-79
2022/04/06 06:48:44;;;;;;;0.40;0.40;;;;;;;6.50;100.00;98863.00;5043961;28;20032;-79
2022/04/06 06:51:10;;;;;;;0.40;0.40;;;;;;;6.53;100.00;98859.13;5066287;28;20040;-78
2022/04/06 06:53:35;;;;;;;0.30;0.30;;;;;;;6.53;100.00;98851.94;5069050;28;20382;-79
2022/04/06 06:56:01;;;;;;;0.40;0.40;;;;;;;6.53;100.00;98848.44;5068734;28;20032;-79
2022/04/06 06:58:26;;;;;;;0.30;0.30;;;;;;;6.40;100.00;98830.50;5052966;28;20402;-79
2022/04/06 07:00:52;;;;;;;0.40;0.40;;;;;;;6.53;100.00;98848.44;5049006;28;20025;-79
2022/04/06 07:03:17;;;;;;;0.40;0.40;;;;;;;6.48;100.00;98845.53;5050369;28;20056;-78
2022/04/06 07:05:45;;;;;;;0.40;0.40;;;;;;;6.44;100.00;98836.28;5050026;28;20032;-79
2022/04/06 07:08:10;;;;;;;0.40;0.40;;;;;;;6.36;100.00;98819.41;5051394;28;20134;-79
2022/04/06 07:10:36;;;;;;;0.50;0.50;;;;;;;6.54;100.00;98836.75;5068583;28;20490;-80
2022/04/06 07:13:02;;;;;;;0.50;0.50;;;;;;;6.53;100.00;98809.22;5069359;28;20039;-80
2022/04/06 07:15:28;;;;;;;0.40;0.40;;;;;;;6.70;100.00;98812.41;5048047;28;20029;-79
2022/04/06 07:17:55;;;;;;;0.43;0.43;;;;;;;6.87;100.00;98822.72;5068334;28;20043;-79
2022/04/06 07:20:22;;;;;;;0.40;0.40;;;;;;;6.97;100.00;98829.34;5046478;28;20035;-79
2022/04/06 07:22:48;;;;;;;0.30;0.30;;;;;;;7.06;100.00;98821.97;5049046;28;20036;-79
2022/04/06 07:25:14;;;;;;;0.52;0.45;;;;;;;7.13;100.00;98812.13;5051999;28;20064;-79
2022/04/06 07:27:40;;;;;;;1.00;0.50;;;;;;;7.22;100.00;98802.06;5049601;28;20158;-79
2022/04/06 07:30:07;;;;;;;0.40;0.40;;;;;;;7.26;100.00;98808.69;5051000;28;20028;-80
2022/04/06 07:32:34;;;;;;;0.40;0.40;;;;;;;7.14;100.00;98813.78;5057967;28;20020;-79
2022/04/06 07:35:00;;;;;;;0.40;0.40;;;;;;;7.08;100.00;98816.44;5052720;28;20028;-79
2022/04/06 07:37:25;;;;;;;1.40;0.70;;;;;;;7.25;100.00;98810.53;5033308;28;20025;-79
2022/04/06 07:39:51;;;;;;;0.50;0.50;;;;;;;7.84;100.00;98811.63;5067426;28;20052;-79
2022/04/06 07:42:17;;;;;;;1.05;0.52;;;;;;;7.94;100.00;98805.88;5033536;28;20025;-78
2022/04/06 07:44:42;;;;;;;0.50;0.50;;;;;;;7.86;100.00;98800.72;5051211;28;20127;-79
2022/04/06 07:47:08;;;;;;;2.20;1.58;;;;;;;8.10;100.00;98807.31;5052679;28;20039;-79
2022/04/06 07:49:33;;;;;;;0.50;0.50;;;;;;;8.59;100.00;98797.94;5032664;28;20039;-77
2022/04/06 07:51:59;;;;;;;0.70;0.70;;;;;;;10.48;100.00;98801.66;5059572;28;20462;-76
2022/04/06 07:54:25;;;;;;;2.88;2.60;;;;;;;10.50;100.00;98794.16;5070699;28;20032;-76
2022/04/06 07:56:50;;;;;;;0.80;0.80;;;;;;;12.26;95.19;98785.06;5084299;28;20110;-77
2022/04/06 07:59:28;;;;;;;0.70;0.70;;;;;;;13.73;87.54;98782.81;5071559;28;20024;-77
2022/04/06 08:02:01;;;;;;;1.80;1.00;;;;;;;14.90;81.39;98783.75;5050470;28;20436;-77
2022/04/06 08:04:48;;;;;;;1.23;1.10;;;;;;;15.67;77.84;98782.63;5067587;28;20028;-77
2022/04/06 08:07:15;;;;;;;1.77;0.90;;;;;;;15.72;77.43;98761.03;5032559;28;20527;-77
2022/04/06 08:09:44;;;;;;;0.70;0.70;;;;;;;15.45;77.26;98792.72;5065803;28;20020;-77
2022/04/06 08:12:11;;;;;;;0.52;0.52;;;;;;;13.35;84.54;98773.53;5051516;28;20496;-76
2022/04/06 08:14:37;;;;;;;0.40;0.40;;;;;;;11.91;93.23;98768.88;5036619;28;20248;-77
2022/04/06 08:17:06;;;;;;;0.50;0.50;;;;;;;11.12;97.39;98760.97;5051602;28;20454;-77
2022/04/06 08:19:36;;;;;;;;;;;;;;;10.68;99.77;98761.09;5070704;28;20037;-76
2022/04/06 08:22:01;;;;;;;0.50;0.50;;;;;;;10.21;100.00;98763.44;5041147;28;19916;-76
2022/04/06 08:24:27;;;;;;;0.40;0.40;;;;;;;9.73;100.00;98774.81;5039148;28;20107;-76
2022/04/06 08:26:53;;;;;;;0.68;0.68;;;;;;;9.46;100.00;98755.44;5039622;28;20033;-76
2022/04/06 08:29:19;;;;;;;0.47;0.47;;;;;;;9.25;100.00;98752.06;5039682;28;20477;-76
2022/04/06 08:31:44;;;;;;;0.50;0.50;;;;;;;9.10;100.00;98769.47;5041285;28;20057;-76
2022/04/06 08:34:12;;;;;;;0.40;0.40;;;;;;;8.71;100.00;98757.94;5054428;28;20036;-76
2022/04/06 08:36:40;;;;;;;0.40;0.40;;;;;;;8.36;100.00;98766.25;5039488;28;20029;-76
2022/04/06 08:39:06;;;;;;;0.50;0.50;;;;;;;8.06;100.00;98747.16;5039367;28;20091;-76
2022/04/06 08:41:32;;;;;;;0.50;0.50;;;;;;;8.29;100.00;98752.06;5055643;28;20350;-76
2022/04/06 08:43:57;;;;;;;0.50;0.50;;;;;;;9.75;100.00;98750.47;5057904;28;20070;-76
2022/04/06 08:46:24;;;;;;;0.50;0.50;;;;;;;9.84;100.00;98730.34;5064160;28;20098;-76
2022/04/06 08:48:51;;;;;;;0.50;0.50;;;;;;;9.83;100.00;98734.06;5070402;28;20032;-76
2022/04/06 08:51:20;;;;;;;0.43;0.43;;;;;;;9.35;100.00;98730.13;5055998;28;20027;-76
2022/04/06 08:53:47;;;;;;;0.57;0.57;;;;;;;8.85;100.00;98738.06;5036162;28;20028;-76
2022/04/06 08:56:14;;;;;;;0.50;0.50;;;;;;;8.65;100.00;98724.75;5070102;28;20086;-76
2022/04/06 08:58:43;;;;;;;0.50;0.50;;;;;;;8.84;100.00;98716.84;5089121;28;20024;-76
2022/04/06 09:01:09;;;;;;;0.50;0.50;;;;;;;9.03;100.00;98716.72;5050099;28;20115;-76
2022/04/06 09:03:35;;;;;;;0.50;0.50;;;;;;;9.44;100.00;98722.63;5034056;28;20028;-76
2022/04/06 09:06:11;;;;;;;1.38;0.60;;;;;;;9.48;100.00;98713.13;5055252;28;20039;-76
2022/04/06 09:08:42;;;;;;;0.50;0.50;;;;;;;9.69;100.00;98723.47;5039290;28;20518;-76
2022/04/06 09:11:10;;;;;;;1.48;1.05;;;;;;;10.76;100.00;98720.47;5049257;28;20418;-76
2022/04/06 09:13:36;;;;;;;1.17;0.50;;;;;;;11.23;98.70;98725.19;5055487;28;20129;-76
2022/04/06 09:16:02;;;;;;;0.40;0.40;;;;;;;9.82;100.00;98709.09;5038076;28;20036;-76
2022/04/06 09:18:35;;;;;;;0.73;0.60;;;;;;;9.02;100.00;98706.22;5038384;28;20424;-77
2022/04/06 09:21:01;;;;;;;6.10;0.77;;;;;;;8.53;100.00;98707.72;5038101;28;20040;-76
2022/04/06 09:23:33;;;;;;;0.50;0.50;;;;;;;8.32;100.00;98709.63;5050845;28;20081;-77
2022/04/06 09:26:13;;;;;;;0.98;0.98;;;;;;;9.98;100.00;98710.41;5041291;28;20060;-77
2022/04/06 09:28:45;;;;;;;1.00;1.00;;;;;;;12.16;97.84;98701.31;5033713;28;20424;-77
2022/04/06 09:31:15;;;;;;;1.23;1.13;;;;;;;14.19;86.09;98707.88;5052525;28;20035;-77
2022/04/06 09:33:43;;;;;;;1.25;0.90;;;;;;;16.05;76.20;98702.19;5055395;28;20375;-75
2022/04/06 09:36:19;;;;;;;0.90;0.90;;;;;;;17.26;71.03;98700.22;5036964;28;20056;-75
2022/04/06 09:38:47;;;;;;;4.10;1.48;;;;;;;18.05;67.99;98692.59;5059758;28;20029;-75
2022/04/06 09:41:15;;;;;;;0.77;0.77;;;;;;;16.69;74.32;98685.66;5054079;28;20090;-77
2022/04/06 09:43:42;;;;;;;0.80;0.63;;;;;;;14.91;81.65;98683.34;5037901;28;20029;-77
2022/04/06 09:49:08;;;;;;;0.50;0.50;;;;;;;13.75;86.50;98691.56;5071026;28;20064;-77
2022/04/06 09:51:35;;;;;;;0.45;0.45;;;;;;;12.77;90.95;98691.75;5070129;28;20107;-80
2022/04/06 09:54:06;;;;;;;1.05;0.70;;;;;;;11.77;95.96;98687.47;5064429;28;20029;-79
2022/04/06 09:56:33;;;;;;;1.90;0.50;;;;;;;10.91;100.00;98679.72;5037916;28;20119;-80
2022/04/06 09:58:59;;;;;;;0.60;0.60;;;;;;;11.08;100.00;98706.78;5053491;28;20054;-80
2022/04/06 10:01:36;;;;;;;0.77;0.70;;;;;;;12.62;90.88;98689.59;5071100;28;20465;-79
2022/04/06 10:04:07;;;;;;;3.30;1.13;;;;;;;15.17;77.62;98700.66;5070742;28;20056;-79
2022/04/06 10:06:37;;;;;;;3.50;1.20;;;;;;;17.08;68.47;98696.13;5069142;28;20489;-79
2022/04/06 10:09:06;;;;;;;1.95;1.00;;;;;;;17.94;65.23;98689.09;5070600;28;20029;-77
2022/04/06 10:11:36;;;;;;;1.00;1.00;;;;;;;18.63;62.64;98681.25;5053891;28;20024;-79
2022/04/06 10:14:04;;;;;;;0.90;0.90;;;;;;;19.13;60.58;98692.97;5037517;28;20063;-79
2022/04/06 10:16:30;;;;;;;1.05;1.05;;;;;;;19.84;58.31;98679.91;5069839;28;20111;-78
2022/04/06 10:18:57;;;;;;;0.63;0.63;;;;;;;18.47;63.41;98683.25;5053686;28;20058;-79
2022/04/06 10:21:35;;;;;;;0.82;0.73;;;;;;;15.29;73.44;98673.41;5053255;28;20048;-78
2022/04/06 10:24:10;;;;;;;3.22;1.05;;;;;;;12.79;83.27;98683.44;5070640;28;20389;-78
2022/04/06 10:26:58;;;;;;;1.30;0.50;;;;;;;11.41;90.86;98676.69;5045195;28;20416;-78
2022/04/06 10:29:24;;;;;;;0.55;0.50;;;;;;;10.68;95.22;98685.00;5063618;28;20048;-79
2022/04/06 10:31:50;;;;;;;3.63;0.88;;;;;;;10.53;94.38;98682.72;5036798;28;20109;-79
2022/04/06 10:34:19;;;;;;;4.40;1.58;;;;;;;13.48;81.45;98678.72;5037430;28;20115;-79
2022/04/06 10:37:12;;;;;;;3.22;1.23;;;;;;;16.38;69.91;98665.75;5086986;28;20021;-79
2022/04/06 10:39:57;;;;;;;0.95;0.93;;;;;;;18.14;63.25;98646.63;5041696;28;20079;-79
2022/04/06 10:42:32;;;;;;;4.82;1.10;;;;;;;17.49;65.22;98647.25;5046327;28;20040;-79
2022/04/06 10:44:59;;;;;;;5.57;1.50;;;;;;;17.27;67.72;98652.13;5053096;28;20060;-80
2022/04/06 10:47:25;;;;;;;2.05;0.80;;;;;;;17.46;66.13;98628.75;5061820;28;20493;-79
2022/04/06 10:50:15;;;;;;;2.75;1.42;;;;;;;19.33;60.99;98638.34;5053215;28;20532;-80
2022/04/06 10:52:42;;;;;;;2.42;1.30;;;;;;;19.26;59.66;98626.13;5053031;28;20090;-79
2022/04/06 10:55:23;;;;;;;3.60;1.30;;;;;;;19.58;59.15;98614.66;5036931;28;20123;-79
2022/04/06 10:58:03;;;;;;;4.93;1.30;;;;;;;16.88;69.55;98622.78;5053469;28;20035;-79
2022/04/06 11:00:30;;;;;;;5.35;1.70;;;;;;;18.31;64.14;98616.34;5047448;28;20046;-79
2022/04/06 11:03:17;;;;;;;8.55;1.92;;;;;;;17.70;62.59;98595.56;5068528;28;20028;-79
2022/04/06 11:05:50;;;;;;;5.30;1.67;;;;;;;15.84;68.69;98582.00;5053036;28;20068;-79
2022/04/06 11:11:38;;;;;;;6.10;1.92;;;;;;;15.83;68.28;98602.88;5058283;28;20033;-78
2022/04/06 11:14:04;;;;;;;7.10;1.80;;;;;;;18.86;54.98;98592.66;5070199;28;20029;-78
2022/04/06 11:16:50;;;;;;;8.43;1.60;;;;;;;20.80;49.60;98592.53;5069674;28;20032;-79
2022/04/06 11:19:16;;;;;;;3.33;1.98;;;;;;;21.14;45.25;98605.91;5051094;28;20052;-78
2022/04/06 11:21:50;;;;;;;5.95;2.30;;;;;;;21.10;46.23;98568.56;5066088;28;20124;-79
2022/04/06 11:24:17;;;;;;;3.72;1.25;;;;;;;21.13;45.65;98584.38;5053005;28;20047;-79
2022/04/06 11:26:43;;;;;;;7.65;1.95;;;;;;;20.41;47.91;98569.84;5036269;28;20028;-79
2022/04/06 11:29:08;;;;;;;6.55;1.20;;;;;;;20.74;47.07;98586.31;5036607;28;20039;-78
2022/04/06 11:32:04;;;;;;;5.15;2.10;;;;;;;20.31;49.03;98560.97;5052160;28;20474;-80
2022/04/06 11:34:40;;;;;;;8.35;2.00;;;;;;;19.74;48.55;98569.00;5047018;28;20060;-79
2022/04/06 11:37:07;;;;;;;3.72;1.60;;;;;;;19.45;48.08;98583.47;5062750;28;20082;-80
2022/04/06 11:39:33;;;;;;;3.28;1.20;;;;;;;19.25;44.16;98557.22;5069728;28;20025;-79
2022/04/06 11:42:02;;;;;;;9.52;1.77;;;;;;;20.36;41.39;98566.38;5049505;28;20051;-79